Time;durP1;ratioP1;P1;durP2;ratioP2;P2;SDS_P1;SDS_P2;PMS_P1;PMS_P2;Temp;Humidity;BMP_temperature;BMP_pressure;BME280_temperature;BME280_humidity;BME280_pressure;Samples;Min_cycle;Max_cycle;Signal;HPM_P1;HPM_P2
2022/10/19 00:00:16;;;;;;;5.65;5.07;;;;;;;17.78;86.80;96534.88;5001305;28;20203;-79
2022/10/19 00:02:43;;;;;;;5.70;5.15;;;;;;;17.77;87.05;96538.50;4998819;28;20601;-79
2022/10/19 00:05:09;;;;;;;7.15;5.05;;;;;;;17.83;86.85;96533.31;5000200;28;20227;-79
2022/10/19 00:07:36;;;;;;;6.32;4.82;;;;;;;17.85;86.92;96540.91;5000119;28;20239;-80
2022/10/19 00:10:05;;;;;;;5.72;5.13;;;;;;;17.81;87.09;96539.69;5000008;28;20195;-80
2022/10/19 00:12:31;;;;;;;6.00;4.90;;;;;;;17.68;88.72;96535.28;4999941;28;20199;-79
2022/10/19 00:14:58;;;;;;;5.88;4.85;;;;;;;17.62;89.28;96536.03;4998671;28;20820;-81
2022/10/19 00:17:24;;;;;;;5.95;5.35;;;;;;;17.63;88.99;96536.84;4999184;28;20843;-80
2022/10/19 00:19:50;;;;;;;5.35;4.85;;;;;;;17.69;88.54;96536.09;4999114;28;20200;-79
2022/10/19 00:22:17;;;;;;;7.18;5.30;;;;;;;17.70;89.00;96538.50;4999596;28;20208;-79
2022/10/19 00:24:44;;;;;;;6.07;4.72;;;;;;;17.80;88.28;96544.13;4999420;28;20215;-80
2022/10/19 00:27:12;;;;;;;6.18;5.00;;;;;;;17.86;88.16;96540.72;5000041;28;20210;-79
2022/10/19 00:29:39;;;;;;;5.75;4.93;;;;;;;17.88;87.57;96545.75;4998926;28;20215;-79
2022/10/19 00:32:05;;;;;;;5.25;4.75;;;;;;;17.95;86.89;96543.91;5000019;28;20207;-79
2022/10/19 00:34:32;;;;;;;8.13;4.85;;;;;;;17.98;86.45;96540.94;4998625;28;20220;-80
2022/10/19 00:36:58;;;;;;;5.57;4.90;;;;;;;17.99;87.03;96539.13;4999438;28;20192;-79
2022/10/19 00:39:25;;;;;;;7.80;4.93;;;;;;;17.97;87.35;96535.91;4998592;28;20203;-80
2022/10/19 00:41:51;;;;;;;8.27;4.93;;;;;;;17.92;87.75;96539.91;4998008;28;20203;-80
2022/10/19 00:45:00;;;;;;;6.00;4.72;;;;;;;17.89;88.15;96529.91;4998591;28;20223;-80
2022/10/19 00:47:28;;;;;;;8.77;5.03;;;;;;;17.88;88.52;96533.50;4998791;28;20206;-79
2022/10/19 00:49:55;;;;;;;5.40;4.90;;;;;;;17.92;88.31;96528.69;4998921;28;20206;-79
2022/10/19 00:52:24;;;;;;;7.53;5.07;;;;;;;17.95;87.61;96529.09;4998382;28;20203;-79
2022/10/19 00:54:53;;;;;;;6.95;5.57;;;;;;;17.98;87.15;96533.09;4997089;28;20224;-80
2022/10/19 00:57:20;;;;;;;7.78;4.88;;;;;;;17.96;87.64;96527.28;4998997;28;20687;-80
2022/10/19 00:59:47;;;;;;;6.82;4.95;;;;;;;17.97;87.68;96530.69;4999263;28;21425;-79
2022/10/19 01:02:15;;;;;;;7.68;4.85;;;;;;;17.93;88.30;96523.28;5001186;28;20205;-79
2022/10/19 01:04:46;;;;;;;5.60;5.10;;;;;;;17.78;88.93;96527.88;5000147;28;20224;-79
2022/10/19 01:07:13;;;;;;;5.05;4.50;;;;;;;17.80;88.93;96527.69;5000424;28;20200;-79
2022/10/19 01:09:40;;;;;;;7.05;4.70;;;;;;;17.70;90.14;96522.06;5000018;28;20214;-80
2022/10/19 01:12:16;;;;;;;5.90;4.50;;;;;;;17.80;89.29;96522.47;4999104;28;20206;-79
2022/10/19 01:15:00;;;;;;;5.03;4.60;;;;;;;17.84;89.25;96521.88;4999085;28;20746;-81
2022/10/19 01:17:35;;;;;;;7.45;4.85;;;;;;;17.84;88.97;96524.47;4999957;28;20251;-81
2022/10/19 01:20:28;;;;;;;5.00;4.53;;;;;;;17.88;89.15;96515.28;5000337;28;20195;-81
2022/10/19 01:23:05;;;;;;;6.38;5.03;;;;;;;17.87;89.23;96511.06;4998510;28;20206;-80
2022/10/19 01:25:42;;;;;;;6.20;4.80;;;;;;;17.92;88.39;96510.44;4999493;28;20216;-80
2022/10/19 01:28:25;;;;;;;6.00;5.43;;;;;;;17.85;89.42;96507.84;4998351;28;20199;-81
2022/10/19 01:30:58;;;;;;;9.27;6.30;;;;;;;17.73;90.28;96506.81;4998319;28;20202;-80
2022/10/19 01:33:35;;;;;;;6.65;6.03;;;;;;;17.77;90.03;96502.81;5000149;28;20207;-80
2022/10/19 01:36:10;;;;;;;12.23;6.15;;;;;;;17.78;90.10;96511.44;5003594;28;20215;-81
2022/10/19 01:38:46;;;;;;;9.30;6.43;;;;;;;17.73;90.45;96506.00;5002909;28;20195;-80
2022/10/19 01:41:17;;;;;;;7.18;6.28;;;;;;;17.70;90.89;96504.63;4997293;28;20199;-80
2022/10/19 01:43:54;;;;;;;7.50;6.38;;;;;;;17.56;92.02;96506.34;5001704;28;20195;-81
2022/10/19 01:46:28;;;;;;;8.60;7.05;;;;;;;17.52;92.96;96504.34;5002152;28;20272;-80
2022/10/19 01:49:00;;;;;;;7.57;6.15;;;;;;;17.59;91.86;96502.56;4994676;28;20199;-80
2022/10/19 01:51:30;;;;;;;7.32;6.68;;;;;;;17.64;91.64;96500.22;5001052;28;20203;-80
2022/10/19 01:54:00;;;;;;;7.78;6.82;;;;;;;17.66;91.41;96498.22;5000595;28;20229;-81
2022/10/19 01:56:29;;;;;;;8.02;6.22;;;;;;;17.75;90.65;96502.22;5001472;28;20222;-79
2022/10/19 01:58:58;;;;;;;8.05;7.25;;;;;;;17.70;91.25;96507.22;5002004;28;20204;-80
2022/10/19 02:01:28;;;;;;;10.10;7.15;;;;;;;17.76;90.43;96500.41;5001351;28;20206;-80
2022/10/19 02:03:57;;;;;;;10.43;7.00;;;;;;;17.79;90.43;96508.63;5001341;28;20203;-80
2022/10/19 02:06:24;;;;;;;7.43;6.65;;;;;;;17.83;90.36;96512.47;5001662;28;20202;-79
2022/10/19 02:08:53;;;;;;;10.85;7.95;;;;;;;17.76;90.99;96509.03;5000197;28;20210;-79
2022/10/19 02:11:21;;;;;;;11.00;8.10;;;;;;;17.68;91.62;96509.22;5001131;28;20196;-81
2022/10/19 02:13:52;;;;;;;8.70;7.90;;;;;;;17.73;91.12;96513.81;5000513;28;20207;-81
2022/10/19 02:16:25;;;;;;;8.70;7.78;;;;;;;17.82;90.67;96508.25;5001343;28;20235;-80
2022/10/19 02:18:54;;;;;;;8.88;7.88;;;;;;;17.87;90.40;96511.06;5000903;28;20207;-80
2022/10/19 02:21:21;;;;;;;11.25;8.23;;;;;;;17.92;90.00;96500.03;5001344;28;20200;-79
2022/10/19 02:23:47;;;;;;;9.73;8.65;;;;;;;17.79;90.72;96500.81;5000395;28;20207;-79
2022/10/19 02:26:14;;;;;;;10.02;9.07;;;;;;;17.81;90.81;96504.03;5000145;28;20192;-80
2022/10/19 02:28:41;;;;;;;9.70;8.82;;;;;;;17.77;91.31;96502.00;5001285;28;20699;-80
2022/10/19 02:31:07;;;;;;;9.68;8.82;;;;;;;17.72;91.14;96499.19;4994102;28;20199;-79
2022/10/19 02:33:34;;;;;;;10.15;9.15;;;;;;;17.76;90.88;96495.19;5001364;28;20210;-80
2022/10/19 02:36:02;;;;;;;9.40;8.43;;;;;;;17.78;91.12;96495.81;5001925;28;20219;-79
2022/10/19 02:38:28;;;;;;;9.52;8.63;;;;;;;17.81;90.64;96493.63;5001897;28;20195;-79
2022/10/19 02:41:03;;;;;;;8.90;8.10;;;;;;;17.86;90.38;96488.63;5000717;28;20192;-80
2022/10/19 02:43:34;;;;;;;9.70;8.80;;;;;;;17.88;90.15;96488.41;5001134;28;20195;-81
2022/10/19 02:46:04;;;;;;;10.60;9.65;;;;;;;17.82;90.79;96484.78;4999937;28;20222;-79
2022/10/19 02:48:33;;;;;;;11.25;9.40;;;;;;;17.74;91.26;96489.38;5000774;28;20202;-79
2022/10/19 02:51:01;;;;;;;11.52;10.35;;;;;;;17.63;91.99;96482.94;4999920;28;20596;-78
2022/10/19 02:53:28;;;;;;;11.68;10.57;;;;;;;17.54;92.64;96476.31;5000479;28;20207;-79
2022/10/19 02:55:55;;;;;;;12.73;10.85;;;;;;;17.46;93.62;96479.09;4997975;28;20219;-81
2022/10/19 02:58:21;;;;;;;12.63;11.30;;;;;;;17.47;93.59;96481.53;5000510;28;20196;-81
2022/10/19 03:00:48;;;;;;;10.45;9.45;;;;;;;17.56;92.83;96482.91;5000219;28;20203;-81
2022/10/19 03:03:14;;;;;;;12.93;9.98;;;;;;;17.63;92.52;96479.53;5000308;28;20207;-80
2022/10/19 03:05:40;;;;;;;10.60;9.48;;;;;;;17.64;92.57;96483.75;4998520;28;20225;-79
2022/10/19 03:08:08;;;;;;;11.55;10.40;;;;;;;17.63;92.48;96482.94;5000017;28;20206;-79
2022/10/19 03:10:35;;;;;;;11.77;10.27;;;;;;;17.63;92.46;96485.53;4999399;28;20199;-80
2022/10/19 03:13:01;;;;;;;13.05;10.20;;;;;;;17.66;92.47;96487.78;4999158;28;20200;-79
2022/10/19 03:15:28;;;;;;;11.18;10.07;;;;;;;17.64;92.66;96481.97;5000191;28;20223;-81
2022/10/19 03:17:56;;;;;;;11.50;10.30;;;;;;;17.53;93.92;96479.91;5000036;28;20222;-81
2022/10/19 03:20:22;;;;;;;11.75;10.73;;;;;;;17.50;93.49;96480.31;4999457;28;20254;-80
2022/10/19 03:22:49;;;;;;;12.45;11.27;;;;;;;17.57;92.96;96481.13;4999419;28;20200;-80
2022/10/19 03:25:17;;;;;;;12.00;10.88;;;;;;;17.56;91.89;96477.72;4999542;28;20227;-79
2022/10/19 03:27:44;;;;;;;12.10;10.90;;;;;;;17.64;91.67;96475.94;4999169;28;20196;-79
2022/10/19 03:30:11;;;;;;;11.35;10.32;;;;;;;17.58;91.74;96469.69;4992384;28;20206;-80
2022/10/19 03:32:37;;;;;;;13.15;11.95;;;;;;;17.41;92.83;96471.06;4999491;28;20219;-79
2022/10/19 03:35:05;;;;;;;13.65;12.25;;;;;;;17.44;92.79;96473.28;5000368;28;20216;-80
2022/10/19 03:37:31;;;;;;;12.68;11.30;;;;;;;17.36;93.76;96471.66;4999614;28;20211;-79
2022/10/19 03:39:58;;;;;;;11.65;10.68;;;;;;;17.49;92.61;96465.69;5000477;28;20210;-79
2022/10/19 03:42:25;;;;;;;13.18;11.88;;;;;;;17.40;92.42;96461.66;4998541;28;20567;-81
2022/10/19 03:44:52;;;;;;;13.10;11.77;;;;;;;17.38;92.34;96454.03;4996501;28;20226;-81
2022/10/19 03:47:18;;;;;;;12.95;11.85;;;;;;;17.20;93.58;96456.41;5000423;28;20199;-81
2022/10/19 03:49:45;;;;;;;12.48;11.30;;;;;;;17.25;93.95;96456.63;4999656;28;20203;-81
2022/10/19 03:52:11;;;;;;;12.85;11.20;;;;;;;17.21;93.99;96460.63;4997713;28;20200;-79
2022/10/19 03:54:38;;;;;;;12.73;11.52;;;;;;;17.23;94.00;96458.63;4995796;28;20227;-80
2022/10/19 03:57:04;;;;;;;13.02;11.93;;;;;;;17.33;93.12;96456.44;4998422;28;20600;-79
2022/10/19 03:59:32;;;;;;;12.93;11.73;;;;;;;17.40;92.38;96454.66;4997793;28;20200;-79
2022/10/19 04:01:58;;;;;;;13.20;11.82;;;;;;;17.30;93.29;96453.44;4996924;28;20208;-80
2022/10/19 04:04:25;;;;;;;12.10;11.00;;;;;;;17.29;93.34;96452.63;4997747;28;20228;-79
2022/10/19 04:06:52;;;;;;;13.38;12.07;;;;;;;17.31;93.26;96455.03;4997563;28;20200;-80
2022/10/19 04:09:21;;;;;;;13.27;11.77;;;;;;;17.38;92.69;96453.25;4997530;28;20203;-79
2022/10/19 04:11:48;;;;;;;13.40;12.10;;;;;;;17.35;93.03;96456.25;4996760;28;20203;-80
2022/10/19 04:14:16;;;;;;;13.25;12.05;;;;;;;17.22;94.10;96444.81;4997822;28;20615;-79
2022/10/19 04:16:44;;;;;;;13.25;11.98;;;;;;;17.27;93.50;96447.63;4997455;28;20230;-79
2022/10/19 04:19:14;;;;;;;13.45;12.25;;;;;;;17.23;93.74;96454.22;4997471;28;20211;-80
2022/10/19 04:21:42;;;;;;;13.02;11.90;;;;;;;17.24;94.03;96452.41;4996807;28;20400;-80
2022/10/19 04:24:11;;;;;;;14.90;12.10;;;;;;;17.34;93.27;96455.44;4997142;28;20273;-80
2022/10/19 04:26:40;;;;;;;13.00;11.68;;;;;;;17.44;92.62;96448.06;4997705;28;20210;-79
2022/10/19 04:29:06;;;;;;;12.75;11.52;;;;;;;17.46;92.20;96448.66;4995310;28;20199;-79
2022/10/19 04:31:33;;;;;;;12.98;11.77;;;;;;;17.43;92.22;96445.66;4995650;28;20207;-80
2022/10/19 04:34:00;;;;;;;11.82;10.82;;;;;;;17.43;92.39;96440.44;4996383;28;20214;-79
2022/10/19 04:36:27;;;;;;;13.00;11.80;;;;;;;17.48;91.91;96444.06;4988422;28;20227;-80
2022/10/19 04:38:54;;;;;;;13.32;12.00;;;;;;;17.42;92.09;96436.22;4993507;28;20455;-79
2022/10/19 04:41:21;;;;;;;14.00;12.50;;;;;;;17.25;93.84;96438.41;4995263;28;20894;-80
2022/10/19 04:43:49;;;;;;;14.48;12.50;;;;;;;17.25;94.23;96435.81;4996188;28;20287;-79
2022/10/19 04:46:18;;;;;;;13.68;12.38;;;;;;;17.29;93.66;96441.44;4977712;28;20207;-80
2022/10/19 04:48:46;;;;;;;13.75;12.30;;;;;;;17.31;93.19;96444.63;4977801;28;20212;-80
2022/10/19 04:51:15;;;;;;;14.68;13.15;;;;;;;17.32;93.25;96441.03;4979866;28;20215;-79
2022/10/19 04:53:42;;;;;;;13.65;12.35;;;;;;;17.39;92.72;96432.22;4980106;28;20204;-80
2022/10/19 04:56:12;;;;;;;13.38;12.05;;;;;;;17.44;92.05;96437.66;4994128;28;20227;-80
2022/10/19 04:58:39;;;;;;;13.93;12.52;;;;;;;17.41;92.11;96432.81;4998691;28;20578;-80
2022/10/19 05:01:09;;;;;;;13.75;12.55;;;;;;;17.42;91.76;96428.41;4998281;28;20203;-79
2022/10/19 05:03:36;;;;;;;13.70;12.50;;;;;;;17.47;91.54;96429.44;4999200;28;20686;-79
2022/10/19 05:06:03;;;;;;;13.02;11.70;;;;;;;17.49;91.40;96427.44;4998346;28;20890;-80
2022/10/19 05:08:31;;;;;;;15.23;13.13;;;;;;;17.53;91.03;96423.41;4997649;28;20203;-79
2022/10/19 05:11:01;;;;;;;12.77;11.57;;;;;;;17.58;90.73;96433.25;4998359;28;20210;-80
2022/10/19 05:13:27;;;;;;;12.88;11.77;;;;;;;17.64;90.29;96423.84;4998022;28;20218;-79
2022/10/19 05:15:57;;;;;;;13.38;12.18;;;;;;;17.63;90.05;96425.63;4998050;28;20230;-80
2022/10/19 05:18:24;;;;;;;13.48;12.13;;;;;;;17.67;89.97;96424.28;4998106;28;20207;-80
2022/10/19 05:20:50;;;;;;;13.88;12.57;;;;;;;17.69;89.18;96421.47;4997930;28;20210;-79
2022/10/19 05:23:17;;;;;;;13.05;11.80;;;;;;;17.65;89.54;96418.47;4998796;28;20247;-80
2022/10/19 05:25:45;;;;;;;15.50;12.80;;;;;;;17.51;90.58;96419.44;4998244;28;20223;-79
2022/10/19 05:28:11;;;;;;;15.40;12.98;;;;;;;17.49;92.55;96417.03;4997775;28;20210;-80
2022/10/19 05:30:38;;;;;;;15.57;11.98;;;;;;;17.45;92.18;96418.41;4996752;28;20199;-79
2022/10/19 05:33:04;;;;;;;13.15;11.85;;;;;;;17.49;91.52;96419.63;4997771;28;20696;-80
2022/10/19 05:35:31;;;;;;;12.75;11.45;;;;;;;17.59;90.57;96421.81;5000010;28;20632;-79
2022/10/19 05:37:57;;;;;;;13.27;12.07;;;;;;;17.53;91.43;96425.22;4998755;28;20223;-79
2022/10/19 05:40:24;;;;;;;13.52;12.13;;;;;;;17.62;90.14;96416.22;4998795;28;20203;-80
2022/10/19 05:42:52;;;;;;;31.45;28.33;;;;;;;17.71;89.19;96412.44;4998733;28;20239;-79
2022/10/19 05:45:18;;;;;;;17.30;15.68;;;;;;;17.70;89.68;96421.28;4998831;28;20238;-80
2022/10/19 05:47:45;;;;;;;16.35;14.63;;;;;;;17.72;89.40;96419.25;4999087;28;20206;-79
2022/10/19 05:50:11;;;;;;;15.00;13.57;;;;;;;17.75;89.28;96429.28;4998198;28;20200;-79
2022/10/19 05:52:38;;;;;;;16.02;14.43;;;;;;;17.75;89.76;96429.28;4997888;28;20223;-80
2022/10/19 05:55:05;;;;;;;13.57;12.27;;;;;;;17.78;89.48;96426.28;4989403;28;20559;-80
2022/10/19 05:57:32;;;;;;;16.23;13.25;;;;;;;17.84;88.98;96424.69;4997283;28;20257;-79
2022/10/19 06:00:00;;;;;;;13.35;12.20;;;;;;;17.84;89.01;96427.28;4996782;28;20675;-80
2022/10/19 06:02:26;;;;;;;16.08;13.77;;;;;;;17.79;89.46;96420.06;4997388;28;20207;-79
2022/10/19 06:04:53;;;;;;;15.90;13.15;;;;;;;17.75;89.63;96431.88;4997518;28;20231;-80
2022/10/19 06:07:19;;;;;;;17.58;13.00;;;;;;;17.77;89.17;96427.28;4996745;28;20230;-80
2022/10/19 06:09:46;;;;;;;14.93;13.25;;;;;;;17.84;88.73;96437.69;4994474;28;20208;-82
2022/10/19 06:12:13;;;;;;;16.77;14.00;;;;;;;17.86;88.59;96428.69;4996686;28;20207;-80
2022/10/19 06:14:40;;;;;;;14.50;13.00;;;;;;;17.70;90.26;96436.91;4996665;28;20239;-79
2022/10/19 06:17:08;;;;;;;15.35;13.85;;;;;;;17.61;91.58;96430.25;4996330;28;20231;-80
2022/10/19 06:19:34;;;;;;;13.25;11.85;;;;;;;17.59;91.87;96438.25;4997328;28;20207;-79
2022/10/19 06:22:01;;;;;;;15.70;12.68;;;;;;;17.60;91.79;96442.47;4999542;28;20235;-80
2022/10/19 06:24:27;;;;;;;13.95;12.57;;;;;;;17.57;92.08;96436.84;5000037;28;20274;-80
2022/10/19 06:26:54;;;;;;;12.50;11.30;;;;;;;17.64;91.37;96436.84;5000550;28;20206;-80
2022/10/19 06:29:20;;;;;;;13.90;12.60;;;;;;;17.63;91.33;96436.06;5000676;28;20200;-80
2022/10/19 06:31:47;;;;;;;13.75;12.30;;;;;;;17.71;91.04;96441.09;4999712;28;20490;-80
2022/10/19 06:34:15;;;;;;;13.77;12.38;;;;;;;17.73;91.88;96446.91;5001467;28;20219;-79
2022/10/19 06:36:42;;;;;;;19.00;15.93;;;;;;;17.73;91.89;96446.91;5000236;28;20227;-79
2022/10/19 06:39:08;;;;;;;16.20;14.60;;;;;;;17.75;91.38;96450.13;5000567;28;20722;-79
2022/10/19 06:41:34;;;;;;;14.70;13.30;;;;;;;17.63;92.42;96453.50;5000964;28;20211;-80
2022/10/19 06:44:01;;;;;;;13.93;11.30;;;;;;;17.64;92.00;96458.53;5000208;28;20203;-80
2022/10/19 06:46:28;;;;;;;12.68;11.57;;;;;;;17.61;91.72;96459.69;5001003;28;20253;-80
2022/10/19 06:48:56;;;;;;;13.30;12.00;;;;;;;17.54;92.01;96458.06;5000784;28;20211;-80
2022/10/19 06:51:25;;;;;;;15.63;11.80;;;;;;;17.59;92.11;96459.09;5000315;28;20206;-80
2022/10/19 06:53:51;;;;;;;13.07;11.70;;;;;;;17.63;91.40;96466.50;5000773;28;20204;-80
2022/10/19 06:56:18;;;;;;;13.32;12.13;;;;;;;17.73;90.34;96469.53;5000568;28;20206;-80
2022/10/19 06:58:45;;;;;;;13.35;12.07;;;;;;;17.70;89.63;96473.38;5001034;28;20585;-80
2022/10/19 07:01:12;;;;;;;13.35;11.95;;;;;;;17.59;90.32;96473.91;5000445;28;20402;-80
2022/10/19 07:03:40;;;;;;;13.00;11.80;;;;;;;17.60;90.25;96475.53;5000551;28;20199;-79
2022/10/19 07:06:08;;;;;;;14.27;12.77;;;;;;;17.57;90.42;96474.09;4999942;28;20246;-80
2022/10/19 07:08:37;;;;;;;13.93;12.52;;;;;;;17.57;90.32;96470.69;5000985;28;20199;-80
2022/10/19 07:11:06;;;;;;;13.50;12.23;;;;;;;17.63;89.43;96469.91;5000055;28;20210;-80
2022/10/19 07:13:33;;;;;;;13.80;12.50;;;;;;;17.60;89.07;96476.31;4999787;28;20207;-80
2022/10/19 07:16:01;;;;;;;14.23;12.90;;;;;;;17.60;88.82;96475.53;4999241;28;20235;-79
2022/10/19 07:18:28;;;;;;;13.68;12.32;;;;;;;17.60;88.85;96465.09;5000462;28;20278;-80
2022/10/19 07:20:56;;;;;;;13.18;11.98;;;;;;;17.65;88.79;96464.53;4999503;28;20207;-80
2022/10/19 07:23:23;;;;;;;13.40;12.13;;;;;;;17.68;88.68;96472.78;4999331;28;20203;-80
2022/10/19 07:25:52;;;;;;;13.70;12.40;;;;;;;17.65;88.70;96465.34;4999421;28;20238;-79
2022/10/19 07:28:19;;;;;;;12.93;11.63;;;;;;;17.64;88.75;96468.13;4999534;28;20203;-80
2022/10/19 07:30:45;;;;;;;248.27;220.32;;;;;;;17.66;88.85;96468.75;4997774;28;20204;-80
2022/10/19 07:33:12;;;;;;;52.45;46.92;;;;;;;17.74;88.46;96458.94;4998738;28;20205;-80
2022/10/19 07:35:38;;;;;;;22.38;19.90;;;;;;;17.70;89.03;96462.97;4999259;28;20219;-80
2022/10/19 07:38:04;;;;;;;19.08;17.30;;;;;;;17.74;88.85;96466.75;4998534;28;20299;-80
2022/10/19 07:40:31;;;;;;;15.43;13.02;;;;;;;17.78;88.52;96464.53;4998816;28;20210;-80
2022/10/19 07:42:59;;;;;;;14.77;12.95;;;;;;;17.78;88.63;96469.75;4998850;28;20214;-79
2022/10/19 07:45:25;;;;;;;15.60;12.70;;;;;;;17.69;89.68;96466.56;4999273;28;20227;-80
2022/10/19 07:47:52;;;;;;;13.80;12.50;;;;;;;17.59;90.13;96466.09;4999011;28;20195;-79
2022/10/19 07:50:18;;;;;;;16.25;14.13;;;;;;;17.52;90.56;96466.09;4999390;28;20722;-79
2022/10/19 07:52:45;;;;;;;14.02;12.57;;;;;;;17.67;89.69;96465.16;5000405;28;20210;-79
2022/10/19 07:55:11;;;;;;;14.68;13.27;;;;;;;17.61;89.43;96467.50;4998701;28;20223;-80
2022/10/19 07:57:38;;;;;;;15.80;13.75;;;;;;;17.70;89.23;96469.97;4998609;28;20235;-79
2022/10/19 08:00:07;;;;;;;14.60;13.20;;;;;;;17.71;89.13;96464.53;4997518;28;20203;-80
2022/10/19 08:02:33;;;;;;;15.55;13.95;;;;;;;17.71;89.40;96463.72;4998471;28;20207;-79
2022/10/19 08:04:59;;;;;;;14.43;13.02;;;;;;;17.69;89.78;96466.56;4998779;28;20224;-79
2022/10/19 08:07:26;;;;;;;14.88;13.25;;;;;;;17.82;88.96;96463.16;5000905;28;20548;-80
2022/10/19 08:09:52;;;;;;;14.05;12.75;;;;;;;17.80;88.86;96473.78;4999173;28;20211;-80
2022/10/19 08:12:19;;;;;;;14.85;13.00;;;;;;;17.85;88.55;96468.78;4998309;28;20199;-80
2022/10/19 08:14:46;;;;;;;17.80;13.98;;;;;;;17.88;88.15;96475.38;4998554;28;20231;-80
2022/10/19 08:17:16;;;;;;;16.63;14.70;;;;;;;17.77;87.70;96475.97;4999177;28;20470;-80
2022/10/19 08:19:43;;;;;;;15.68;14.18;;;;;;;17.75;88.68;96470.94;4999215;28;20214;-80
2022/10/19 08:22:09;;;;;;;18.30;14.60;;;;;;;17.71;88.80;96469.75;4999166;28;20211;-79
2022/10/19 08:24:36;;;;;;;24.35;21.85;;;;;;;17.67;88.75;96481.59;4999155;28;20227;-80
2022/10/19 08:27:02;;;;;;;35.80;32.15;;;;;;;17.68;88.48;96477.19;4998156;28;20211;-80
2022/10/19 08:29:29;;;;;;;22.35;20.15;;;;;;;17.78;88.24;96474.97;4997904;28;20210;-79
2022/10/19 08:31:55;;;;;;;18.77;16.83;;;;;;;17.82;88.09;96471.78;4999024;28;20207;-79
2022/10/19 08:34:24;;;;;;;17.83;16.13;;;;;;;17.83;87.75;96469.97;4997494;28;20246;-80
2022/10/19 08:36:50;;;;;;;17.23;15.60;;;;;;;17.80;88.21;96465.16;4997191;28;20289;-79
2022/10/19 08:39:17;;;;;;;18.00;16.13;;;;;;;17.83;88.16;96477.78;4997938;28;20219;-79
2022/10/19 08:41:55;;;;;;;16.88;14.80;;;;;;;17.93;87.49;96467.75;4998145;28;20199;-79
2022/10/19 08:44:56;;;;;;;16.20;14.60;;;;;;;18.06;87.39;96466.97;4996172;28;20219;-80
2022/10/19 08:47:36;;;;;;;17.02;15.50;;;;;;;18.00;87.46;96465.16;4979705;28;20210;-80
2022/10/19 08:50:16;;;;;;;17.17;15.50;;;;;;;18.00;87.73;96460.75;4978513;28;20715;-79
2022/10/19 08:52:46;;;;;;;17.10;15.45;;;;;;;18.06;87.61;96464.34;4979694;28;20218;-80
2022/10/19 08:55:15;;;;;;;17.52;15.48;;;;;;;18.05;87.59;96468.78;4986391;28;20793;-80
2022/10/19 08:57:51;;;;;;;17.02;15.27;;;;;;;18.07;86.82;96458.94;4998149;28;20219;-80
2022/10/19 09:00:26;;;;;;;21.05;15.27;;;;;;;18.03;87.16;96456.94;4999739;28;20203;-79
2022/10/19 09:03:03;;;;;;;16.55;14.93;;;;;;;18.05;86.92;96463.56;4999479;28;20207;-80
2022/10/19 09:05:37;;;;;;;16.55;14.85;;;;;;;18.00;86.22;96465.97;4999018;28;20247;-80
2022/10/19 09:08:04;;;;;;;17.42;15.63;;;;;;;17.87;86.94;96464.16;4997959;28;20218;-80
2022/10/19 09:10:35;;;;;;;17.67;15.77;;;;;;;17.81;87.68;96464.94;4999411;28;20207;-80
2022/10/19 09:13:07;;;;;;;15.80;14.20;;;;;;;17.88;87.32;96457.16;4998872;28;20208;-81
2022/10/19 09:15:39;;;;;;;16.15;14.40;;;;;;;17.82;87.23;96468.38;4998619;28;20281;-80
2022/10/19 09:18:10;;;;;;;16.05;13.88;;;;;;;17.85;87.32;96462.75;4998687;28;20223;-80
2022/10/19 09:20:41;;;;;;;19.88;13.65;;;;;;;17.94;86.70;96459.72;4997737;28;20595;-81
2022/10/19 09:23:19;;;;;;;16.60;14.73;;;;;;;17.89;86.71;96462.16;4997309;28;20218;-80
2022/10/19 09:25:48;;;;;;;59.67;53.30;;;;;;;17.88;87.46;96459.75;4997526;28;20223;-79
2022/10/19 09:28:27;;;;;;;25.50;21.30;;;;;;;17.94;86.79;96454.53;4997148;28;20203;-80
2022/10/19 09:30:56;;;;;;;16.92;15.23;;;;;;;17.88;86.95;96460.56;4997179;28;20203;-79
2022/10/19 09:33:28;;;;;;;15.63;13.98;;;;;;;17.80;87.24;96467.75;4998141;28;20727;-80
2022/10/19 09:35:57;;;;;;;18.15;13.77;;;;;;;17.89;87.12;96463.97;4996439;28;20227;-80
2022/10/19 09:38:27;;;;;;;15.02;13.27;;;;;;;17.93;86.51;96462.53;4996618;28;20223;-80
2022/10/19 09:40:53;;;;;;;15.80;14.05;;;;;;;18.00;85.83;96462.56;4997552;28;20199;-80
2022/10/19 09:43:21;;;;;;;16.02;13.75;;;;;;;18.10;85.72;96471.56;4997947;28;20208;-81
2022/10/19 09:45:52;;;;;;;15.63;14.23;;;;;;;18.14;85.48;96467.53;4997666;28;20224;-80
2022/10/19 09:48:27;;;;;;;14.85;13.07;;;;;;;18.14;85.21;96471.97;4998979;28;20204;-81
2022/10/19 09:50:58;;;;;;;16.40;14.10;;;;;;;18.18;85.20;96478.38;4998230;28;20206;-80
2022/10/19 09:53:26;;;;;;;14.88;13.35;;;;;;;18.23;85.39;96468.97;4999073;28;20207;-80
2022/10/19 09:55:58;;;;;;;15.43;13.82;;;;;;;18.26;84.80;96473.78;4999531;28;20270;-80
2022/10/19 09:58:26;;;;;;;18.30;14.80;;;;;;;18.17;84.07;96467.16;5001271;28;20314;-80
2022/10/19 10:00:54;;;;;;;17.92;13.90;;;;;;;17.94;84.89;96467.56;5002064;28;20204;-80
2022/10/19 10:03:30;;;;;;;15.60;13.13;;;;;;;17.97;84.59;96468.16;5002031;28;20310;-80
2022/10/19 10:06:01;;;;;;;15.30;13.80;;;;;;;17.93;84.44;96471.16;5001547;28;20307;-80
2022/10/19 10:08:31;;;;;;;15.23;13.63;;;;;;;17.83;85.25;96480.38;5001619;28;20215;-80
2022/10/19 10:11:06;;;;;;;13.65;12.32;;;;;;;17.87;85.44;96468.56;5001647;28;20690;-80
2022/10/19 10:13:37;;;;;;;13.30;11.98;;;;;;;18.02;84.61;96470.97;5000791;28;20257;-80
2022/10/19 10:16:07;;;;;;;13.93;12.52;;;;;;;18.14;84.44;96462.34;5001323;28;20238;-80
2022/10/19 10:18:37;;;;;;;14.27;12.88;;;;;;;18.23;83.89;96468.97;5000502;28;20223;-80
2022/10/19 10:21:13;;;;;;;13.30;11.95;;;;;;;18.33;83.24;96471.13;5000060;28;20203;-80
2022/10/19 10:23:40;;;;;;;14.85;11.63;;;;;;;18.29;82.41;96469.94;5000486;28;20210;-80
2022/10/19 10:26:19;;;;;;;11.55;10.45;;;;;;;18.22;81.61;96466.53;4999623;28;20223;-80
2022/10/19 10:28:50;;;;;;;11.80;10.63;;;;;;;18.23;81.26;96465.53;5000283;28;20230;-80
2022/10/19 10:31:22;;;;;;;24.75;22.20;;;;;;;18.26;81.25;96452.09;4999808;28;20211;-81
2022/10/19 10:33:55;;;;;;;18.90;16.60;;;;;;;18.22;80.70;96453.50;4999084;28;20199;-80
2022/10/19 10:36:27;;;;;;;12.82;11.20;;;;;;;18.28;80.15;96450.88;4998963;28;20683;-80
2022/10/19 10:39:06;;;;;;;10.05;9.10;;;;;;;18.29;80.00;96449.88;4998222;28;20231;-79
2022/10/19 10:41:39;;;;;;;10.63;9.48;;;;;;;18.37;79.75;96450.66;4997681;28;20393;-80
2022/10/19 10:44:09;;;;;;;10.85;8.65;;;;;;;18.37;79.86;96448.88;4998584;28;20211;-83
2022/10/19 10:46:38;;;;;;;10.02;8.90;;;;;;;18.40;80.52;96448.47;4998844;28;20214;-80
2022/10/19 10:49:06;;;;;;;10.93;9.93;;;;;;;18.40;80.67;96447.66;4998018;28;20195;-80
2022/10/19 10:51:38;;;;;;;12.55;10.02;;;;;;;18.25;79.66;96447.91;4998031;28;20218;-79
2022/10/19 10:54:19;;;;;;;11.13;10.02;;;;;;;18.01;81.04;96445.91;4998619;28;20204;-79
2022/10/19 10:57:11;;;;;;;10.77;9.60;;;;;;;17.88;81.21;96437.09;4977722;28;20196;-80
2022/10/19 10:59:43;;;;;;;10.20;9.10;;;;;;;17.93;81.30;96442.50;4991869;28;20234;-80
2022/10/19 11:02:18;;;;;;;10.23;9.32;;;;;;;17.95;80.99;96429.28;5017638;28;20203;-80
2022/10/19 11:04:48;;;;;;;9.45;8.60;;;;;;;18.01;80.49;96430.28;5017301;28;20296;-79
2022/10/19 11:07:20;;;;;;;11.90;9.68;;;;;;;18.03;80.12;96431.69;5016909;28;20203;-80
2022/10/19 11:09:52;;;;;;;11.27;9.10;;;;;;;18.02;80.20;96434.47;4998692;28;20204;-80
2022/10/19 11:12:24;;;;;;;10.23;9.23;;;;;;;17.98;80.25;96430.66;4996730;28;20211;-79
2022/10/19 11:14:57;;;;;;;11.15;8.90;;;;;;;17.99;80.66;96422.66;4997001;28;20238;-80
2022/10/19 11:17:27;;;;;;;11.25;9.73;;;;;;;18.05;80.38;96418.44;4997092;28;20568;-80
2022/10/19 11:19:54;;;;;;;10.73;9.63;;;;;;;18.05;80.56;96414.03;4998649;28;20628;-80
2022/10/19 11:22:27;;;;;;;10.88;9.77;;;;;;;17.97;80.82;96418.66;4997984;28;20210;-79
2022/10/19 11:25:07;;;;;;;11.45;10.18;;;;;;;17.97;80.47;96416.84;4998728;28;20281;-80
2022/10/19 11:27:47;;;;;;;10.77;9.23;;;;;;;18.07;80.41;96413.84;4996800;28;20206;-79
2022/10/19 11:30:17;;;;;;;10.57;9.55;;;;;;;18.11;79.58;96410.59;4996796;28;20202;-80